sensor_id;sensor_type;location;lat;lon;timestamp;temperature;humidity
2571;DHT22;1295;51.130;6.732;2022-12-16T00:00:02;-2.10;99.90
2571;DHT22;1295;51.130;6.732;2022-12-16T00:02:26;-2.10;99.90
2571;DHT22;1295;51.130;6.732;2022-12-16T00:04:52;-2.10;99.90
2571;DHT22;1295;51.130;6.732;2022-12-16T00:07:17;-2.10;99.90
2571;DHT22;1295;51.130;6.732;2022-12-16T00:09:43;-2.10;99.90
2571;DHT22;1295;51.130;6.732;2022-12-16T00:12:09;-2.10;99.90
2571;DHT22;1295;51.130;6.732;2022-12-16T00:14:35;-2.20;99.90
2571;DHT22;1295;51.130;6.732;2022-12-16T00:17:01;-2.10;99.90
2571;DHT22;1295;51.130;6.732;2022-12-16T00:19:26;-2.10;99.90
2571;DHT22;1295;51.130;6.732;2022-12-16T00:21:53;-2.10;99.90
2571;DHT22;1295;51.130;6.732;2022-12-16T00:24:18;-2.10;99.90
2571;DHT22;1295;51.130;6.732;2022-12-16T00:26:44;-2.10;99.90
2571;DHT22;1295;51.130;6.732;2022-12-16T00:29:09;-2.20;99.90
2571;DHT22;1295;51.130;6.732;2022-12-16T00:31:35;-2.20;99.90
2571;DHT22;1295;51.130;6.732;2022-12-16T00:34:01;-2.20;99.90
2571;DHT22;1295;51.130;6.732;2022-12-16T00:36:26;-2.20;99.90
2571;DHT22;1295;51.130;6.732;2022-12-16T00:38:53;-2.20;99.90
2571;DHT22;1295;51.130;6.732;2022-12-16T00:41:18;-2.20;99.90
2571;DHT22;1295;51.130;6.732;2022-12-16T00:43:44;-2.20;99.90
2571;DHT22;1295;51.130;6.732;2022-12-16T00:46:10;-2.20;99.90
2571;DHT22;1295;51.130;6.732;2022-12-16T00:48:35;-2.20;99.90
2571;DHT22;1295;51.130;6.732;2022-12-16T00:51:01;-2.20;99.90
2571;DHT22;1295;51.130;6.732;2022-12-16T00:53:27;-2.20;99.90
2571;DHT22;1295;51.130;6.732;2022-12-16T00:56:02;-2.20;99.90
2571;DHT22;1295;51.130;6.732;2022-12-16T00:58:27;-2.20;99.90
2571;DHT22;1295;51.130;6.732;2022-12-16T01:00:52;-2.20;99.90
2571;DHT22;1295;51.130;6.732;2022-12-16T01:03:18;-2.30;99.90
2571;DHT22;1295;51.130;6.732;2022-12-16T01:05:44;-2.30;99.90
2571;DHT22;1295;51.130;6.732;2022-12-16T01:08:09;-2.20;99.90
2571;DHT22;1295;51.130;6.732;2022-12-16T01:10:35;-2.20;99.90
2571;DHT22;1295;51.130;6.732;2022-12-16T01:13:01;-2.20;99.90
2571;DHT22;1295;51.130;6.732;2022-12-16T01:15:27;-2.30;99.90
2571;DHT22;1295;51.130;6.732;2022-12-16T01:17:53;-2.30;99.90
2571;DHT22;1295;51.130;6.732;2022-12-16T01:20:18;-2.30;99.90
2571;DHT22;1295;51.130;6.732;2022-12-16T01:22:44;-2.30;99.90
2571;DHT22;1295;51.130;6.732;2022-12-16T01:25:10;-2.30;99.90
2571;DHT22;1295;51.130;6.732;2022-12-16T01:27:35;-2.30;99.90
2571;DHT22;1295;51.130;6.732;2022-12-16T01:30:01;-2.30;99.90
2571;DHT22;1295;51.130;6.732;2022-12-16T01:32:26;-2.30;99.90
2571;DHT22;1295;51.130;6.732;2022-12-16T01:34:52;-2.30;99.90
2571;DHT22;1295;51.130;6.732;2022-12-16T01:37:18;-2.30;99.90
2571;DHT22;1295;51.130;6.732;2022-12-16T01:39:43;-2.30;99.90
2571;DHT22;1295;51.130;6.732;2022-12-16T01:42:11;-2.30;99.90
2571;DHT22;1295;51.130;6.732;2022-12-16T01:44:36;-2.40;99.90
2571;DHT22;1295;51.130;6.732;2022-12-16T01:47:02;-2.40;99.90
2571;DHT22;1295;51.130;6.732;2022-12-16T01:49:29;-2.40;99.90
2571;DHT22;1295;51.130;6.732;2022-12-16T01:51:53;-2.40;99.90
2571;DHT22;1295;51.130;6.732;2022-12-16T01:54:23;-2.40;99.90
2571;DHT22;1295;51.130;6.732;2022-12-16T01:56:50;-2.40;99.90
2571;DHT22;1295;51.130;6.732;2022-12-16T01:59:14;-2.40;99.90
2571;DHT22;1295;51.130;6.732;2022-12-16T02:01:40;-2.40;99.90
2571;DHT22;1295;51.130;6.732;2022-12-16T02:04:05;-2.40;99.90
2571;DHT22;1295;51.130;6.732;2022-12-16T02:06:32;-2.40;99.90
2571;DHT22;1295;51.130;6.732;2022-12-16T02:08:58;-2.40;99.90
2571;DHT22;1295;51.130;6.732;2022-12-16T02:11:36;-2.40;99.90
2571;DHT22;1295;51.130;6.732;2022-12-16T02:14:06;-2.40;99.90
2571;DHT22;1295;51.130;6.732;2022-12-16T02:16:40;-2.40;99.90
2571;DHT22;1295;51.130;6.732;2022-12-16T02:19:34;-2.40;99.90
2571;DHT22;1295;51.130;6.732;2022-12-16T02:22:13;-2.40;99.90
2571;DHT22;1295;51.130;6.732;2022-12-16T02:27:44;-2.50;99.90
2571;DHT22;1295;51.130;6.732;2022-12-16T02:33:09;-2.50;99.90
2571;DHT22;1295;51.130;6.732;2022-12-16T02:35:38;-2.50;99.90
2571;DHT22;1295;51.130;6.732;2022-12-16T02:38:40;-2.50;99.90
2571;DHT22;1295;51.130;6.732;2022-12-16T02:41:04;-2.50;99.90
2571;DHT22;1295;51.130;6.732;2022-12-16T02:46:04;-2.50;99.90
2571;DHT22;1295;51.130;6.732;2022-12-16T02:48:30;-2.50;99.90
2571;DHT22;1295;51.130;6.732;2022-12-16T02:50:56;-2.50;99.90
2571;DHT22;1295;51.130;6.732;2022-12-16T02:53:21;-2.50;99.90
2571;DHT22;1295;51.130;6.732;2022-12-16T02:55:54;-2.50;99.90
2571;DHT22;1295;51.130;6.732;2022-12-16T03:00:53;-2.50;99.90
2571;DHT22;1295;51.130;6.732;2022-12-16T03:03:19;-2.50;99.90
2571;DHT22;1295;51.130;6.732;2022-12-16T03:05:43;-2.60;99.90
2571;DHT22;1295;51.130;6.732;2022-12-16T03:08:09;-2.60;99.90
2571;DHT22;1295;51.130;6.732;2022-12-16T03:10:35;-2.60;99.90
2571;DHT22;1295;51.130;6.732;2022-12-16T03:12:59;-2.60;99.90
2571;DHT22;1295;51.130;6.732;2022-12-16T03:15:25;-2.60;99.90
2571;DHT22;1295;51.130;6.732;2022-12-16T03:17:50;-2.60;99.90
2571;DHT22;1295;51.130;6.732;2022-12-16T03:20:18;-2.60;99.90
2571;DHT22;1295;51.130;6.732;2022-12-16T03:22:43;-2.60;99.90
2571;DHT22;1295;51.130;6.732;2022-12-16T03:25:09;-2.60;99.90
2571;DHT22;1295;51.130;6.732;2022-12-16T03:27:44;-2.60;99.90
2571;DHT22;1295;51.130;6.732;2022-12-16T03:30:12;-2.60;99.90
2571;DHT22;1295;51.130;6.732;2022-12-16T03:32:38;-2.60;99.90
2571;DHT22;1295;51.130;6.732;2022-12-16T03:35:11;-2.60;99.90
2571;DHT22;1295;51.130;6.732;2022-12-16T03:37:34;-2.60;99.90
2571;DHT22;1295;51.130;6.732;2022-12-16T03:40:00;-2.60;99.90
2571;DHT22;1295;51.130;6.732;2022-12-16T03:42:25;-2.70;99.90
2571;DHT22;1295;51.130;6.732;2022-12-16T03:44:51;-2.60;99.90
2571;DHT22;1295;51.130;6.732;2022-12-16T03:47:17;-2.60;99.90
2571;DHT22;1295;51.130;6.732;2022-12-16T03:49:44;-2.60;99.90
2571;DHT22;1295;51.130;6.732;2022-12-16T03:52:19;-2.70;99.90
2571;DHT22;1295;51.130;6.732;2022-12-16T03:54:45;-2.70;99.90
2571;DHT22;1295;51.130;6.732;2022-12-16T03:57:11;-2.70;99.90
2571;DHT22;1295;51.130;6.732;2022-12-16T03:59:36;-2.70;99.90
2571;DHT22;1295;51.130;6.732;2022-12-16T04:02:03;-2.70;99.90
2571;DHT22;1295;51.130;6.732;2022-12-16T04:04:28;-2.70;99.90
2571;DHT22;1295;51.130;6.732;2022-12-16T04:06:54;-2.70;99.90
2571;DHT22;1295;51.130;6.732;2022-12-16T04:09:26;-2.70;99.90
2571;DHT22;1295;51.130;6.732;2022-12-16T04:11:52;-2.70;99.90
2571;DHT22;1295;51.130;6.732;2022-12-16T04:14:24;-2.80;99.90
2571;DHT22;1295;51.130;6.732;2022-12-16T04:16:55;-2.80;99.90
2571;DHT22;1295;51.130;6.732;2022-12-16T04:19:29;-2.80;99.90
2571;DHT22;1295;51.130;6.732;2022-12-16T04:21:59;-2.80;99.90
2571;DHT22;1295;51.130;6.732;2022-12-16T04:24:32;-2.80;99.90
2571;DHT22;1295;51.130;6.732;2022-12-16T04:26:57;-2.80;99.90
2571;DHT22;1295;51.130;6.732;2022-12-16T04:29:29;-2.80;99.90
2571;DHT22;1295;51.130;6.732;2022-12-16T04:31:54;-2.80;99.90
2571;DHT22;1295;51.130;6.732;2022-12-16T04:34:20;-2.80;99.90
2571;DHT22;1295;51.130;6.732;2022-12-16T04:36:50;-2.80;99.90
2571;DHT22;1295;51.130;6.732;2022-12-16T04:39:21;-2.80;99.90
2571;DHT22;1295;51.130;6.732;2022-12-16T04:41:53;-2.80;99.90
2571;DHT22;1295;51.130;6.732;2022-12-16T04:44:25;-2.80;99.90
2571;DHT22;1295;51.130;6.732;2022-12-16T04:46:57;-2.80;99.90
2571;DHT22;1295;51.130;6.732;2022-12-16T04:49:29;-2.80;99.90
2571;DHT22;1295;51.130;6.732;2022-12-16T04:52:01;-2.70;99.90
2571;DHT22;1295;51.130;6.732;2022-12-16T04:54:33;-2.80;99.90
2571;DHT22;1295;51.130;6.732;2022-12-16T04:57:05;-2.90;99.90
2571;DHT22;1295;51.130;6.732;2022-12-16T04:59:51;-2.80;99.90
2571;DHT22;1295;51.130;6.732;2022-12-16T05:02:22;-2.90;99.90
2571;DHT22;1295;51.130;6.732;2022-12-16T05:04:55;-2.90;99.90
2571;DHT22;1295;51.130;6.732;2022-12-16T05:07:33;-2.90;99.90
2571;DHT22;1295;51.130;6.732;2022-12-16T05:10:06;-2.90;99.90
2571;DHT22;1295;51.130;6.732;2022-12-16T05:12:38;-2.90;99.90
2571;DHT22;1295;51.130;6.732;2022-12-16T05:15:10;-2.90;99.90
2571;DHT22;1295;51.130;6.732;2022-12-16T05:17:41;-2.90;99.90
2571;DHT22;1295;51.130;6.732;2022-12-16T05:20:13;-2.90;99.90
2571;DHT22;1295;51.130;6.732;2022-12-16T05:22:45;-2.90;99.90
2571;DHT22;1295;51.130;6.732;2022-12-16T05:25:17;-2.90;99.90
2571;DHT22;1295;51.130;6.732;2022-12-16T05:27:49;-2.90;99.90
2571;DHT22;1295;51.130;6.732;2022-12-16T05:30:20;-2.90;99.90
2571;DHT22;1295;51.130;6.732;2022-12-16T05:32:52;-2.90;99.90
2571;DHT22;1295;51.130;6.732;2022-12-16T05:35:25;-2.90;99.90
2571;DHT22;1295;51.130;6.732;2022-12-16T05:37:56;-2.90;99.90
2571;DHT22;1295;51.130;6.732;2022-12-16T05:40:28;-2.90;99.90
2571;DHT22;1295;51.130;6.732;2022-12-16T05:43:00;-3.00;99.90
2571;DHT22;1295;51.130;6.732;2022-12-16T05:45:32;-2.90;99.90
2571;DHT22;1295;51.130;6.732;2022-12-16T05:48:05;-2.90;99.90
2571;DHT22;1295;51.130;6.732;2022-12-16T05:50:37;-3.00;99.90
2571;DHT22;1295;51.130;6.732;2022-12-16T05:53:09;-2.90;99.90
2571;DHT22;1295;51.130;6.732;2022-12-16T05:55:41;-2.90;99.90
2571;DHT22;1295;51.130;6.732;2022-12-16T05:58:13;-2.90;99.90
2571;DHT22;1295;51.130;6.732;2022-12-16T06:00:45;-3.00;99.90
2571;DHT22;1295;51.130;6.732;2022-12-16T06:03:16;-3.00;99.90
2571;DHT22;1295;51.130;6.732;2022-12-16T06:05:49;-2.90;99.90
2571;DHT22;1295;51.130;6.732;2022-12-16T06:08:21;-2.90;99.90
2571;DHT22;1295;51.130;6.732;2022-12-16T06:10:53;-3.00;99.90
2571;DHT22;1295;51.130;6.732;2022-12-16T06:13:25;-3.00;99.90
2571;DHT22;1295;51.130;6.732;2022-12-16T06:15:57;-3.00;99.90
2571;DHT22;1295;51.130;6.732;2022-12-16T06:18:29;-3.10;99.90
2571;DHT22;1295;51.130;6.732;2022-12-16T06:21:00;-3.00;99.90
2571;DHT22;1295;51.130;6.732;2022-12-16T06:23:32;-3.00;99.90
2571;DHT22;1295;51.130;6.732;2022-12-16T06:26:05;-3.10;99.90
2571;DHT22;1295;51.130;6.732;2022-12-16T06:28:47;-3.10;99.90
2571;DHT22;1295;51.130;6.732;2022-12-16T06:31:19;-3.10;99.90
2571;DHT22;1295;51.130;6.732;2022-12-16T06:33:51;-3.10;99.90
2571;DHT22;1295;51.130;6.732;2022-12-16T06:36:23;-3.10;99.90
2571;DHT22;1295;51.130;6.732;2022-12-16T06:38:54;-3.10;99.90
2571;DHT22;1295;51.130;6.732;2022-12-16T06:41:26;-3.10;99.90
2571;DHT22;1295;51.130;6.732;2022-12-16T06:43:58;-3.10;99.90
2571;DHT22;1295;51.130;6.732;2022-12-16T06:46:30;-3.10;99.90
2571;DHT22;1295;51.130;6.732;2022-12-16T06:49:02;-3.10;99.90
2571;DHT22;1295;51.130;6.732;2022-12-16T06:51:33;-3.10;99.90
2571;DHT22;1295;51.130;6.732;2022-12-16T06:54:06;-3.20;99.90
2571;DHT22;1295;51.130;6.732;2022-12-16T06:56:38;-3.20;99.90
2571;DHT22;1295;51.130;6.732;2022-12-16T06:59:10;-3.10;99.90
2571;DHT22;1295;51.130;6.732;2022-12-16T07:01:57;-3.10;99.90
2571;DHT22;1295;51.130;6.732;2022-12-16T07:04:30;-3.10;99.90
2571;DHT22;1295;51.130;6.732;2022-12-16T07:07:01;-3.10;99.90
2571;DHT22;1295;51.130;6.732;2022-12-16T07:09:33;-3.10;99.90
2571;DHT22;1295;51.130;6.732;2022-12-16T07:12:05;-3.10;99.90
2571;DHT22;1295;51.130;6.732;2022-12-16T07:14:37;-3.10;99.90
2571;DHT22;1295;51.130;6.732;2022-12-16T07:17:09;-3.20;99.90
2571;DHT22;1295;51.130;6.732;2022-12-16T07:19:41;-3.20;99.90
2571;DHT22;1295;51.130;6.732;2022-12-16T07:22:12;-3.20;99.90
2571;DHT22;1295;51.130;6.732;2022-12-16T07:24:49;-3.20;99.90
2571;DHT22;1295;51.130;6.732;2022-12-16T07:27:26;-3.20;99.90
2571;DHT22;1295;51.130;6.732;2022-12-16T07:29:58;-3.20;99.90
2571;DHT22;1295;51.130;6.732;2022-12-16T07:32:29;-3.20;99.90
2571;DHT22;1295;51.130;6.732;2022-12-16T07:35:01;-3.20;99.90
2571;DHT22;1295;51.130;6.732;2022-12-16T07:37:35;-3.20;99.90
2571;DHT22;1295;51.130;6.732;2022-12-16T07:40:06;-3.30;99.90
2571;DHT22;1295;51.130;6.732;2022-12-16T07:42:41;-3.30;99.90
2571;DHT22;1295;51.130;6.732;2022-12-16T07:45:13;-3.20;99.90
2571;DHT22;1295;51.130;6.732;2022-12-16T07:47:53;-3.20;99.90
2571;DHT22;1295;51.130;6.732;2022-12-16T07:50:25;-3.20;99.90
2571;DHT22;1295;51.130;6.732;2022-12-16T07:52:57;-3.20;99.90
2571;DHT22;1295;51.130;6.732;2022-12-16T07:55:28;-3.30;99.90
2571;DHT22;1295;51.130;6.732;2022-12-16T07:58:01;-3.30;99.90
2571;DHT22;1295;51.130;6.732;2022-12-16T08:00:33;-3.30;99.90
2571;DHT22;1295;51.130;6.732;2022-12-16T08:03:04;-3.30;99.90
2571;DHT22;1295;51.130;6.732;2022-12-16T08:05:36;-3.30;99.90
2571;DHT22;1295;51.130;6.732;2022-12-16T08:08:08;-3.30;99.90
2571;DHT22;1295;51.130;6.732;2022-12-16T08:10:40;-3.30;99.90
2571;DHT22;1295;51.130;6.732;2022-12-16T08:13:12;-3.30;99.90
2571;DHT22;1295;51.130;6.732;2022-12-16T08:15:44;-3.30;99.90
2571;DHT22;1295;51.130;6.732;2022-12-16T08:18:15;-3.30;99.90
2571;DHT22;1295;51.130;6.732;2022-12-16T08:20:48;-3.30;99.90
2571;DHT22;1295;51.130;6.732;2022-12-16T08:23:20;-3.40;99.90
2571;DHT22;1295;51.130;6.732;2022-12-16T08:25:53;-3.30;99.90
2571;DHT22;1295;51.130;6.732;2022-12-16T08:28:25;-3.30;99.90
2571;DHT22;1295;51.130;6.732;2022-12-16T08:30:56;-3.30;99.90
2571;DHT22;1295;51.130;6.732;2022-12-16T08:33:40;-3.30;99.90
2571;DHT22;1295;51.130;6.732;2022-12-16T08:36:12;-3.30;99.90
2571;DHT22;1295;51.130;6.732;2022-12-16T08:38:43;-3.20;99.90
2571;DHT22;1295;51.130;6.732;2022-12-16T08:41:20;-3.30;99.90
2571;DHT22;1295;51.130;6.732;2022-12-16T08:43:52;-3.30;99.90
2571;DHT22;1295;51.130;6.732;2022-12-16T08:46:23;-3.30;99.90
2571;DHT22;1295;51.130;6.732;2022-12-16T08:48:55;-3.30;99.90
2571;DHT22;1295;51.130;6.732;2022-12-16T08:51:28;-3.30;99.90
2571;DHT22;1295;51.130;6.732;2022-12-16T08:53:59;-3.30;99.90
2571;DHT22;1295;51.130;6.732;2022-12-16T08:56:31;-3.20;99.90
2571;DHT22;1295;51.130;6.732;2022-12-16T08:59:03;-3.30;99.90
2571;DHT22;1295;51.130;6.732;2022-12-16T09:01:35;-3.30;99.90
2571;DHT22;1295;51.130;6.732;2022-12-16T09:04:07;-3.30;99.90
2571;DHT22;1295;51.130;6.732;2022-12-16T09:06:40;-3.50;99.90
2571;DHT22;1295;51.130;6.732;2022-12-16T09:09:11;-3.50;99.90
2571;DHT22;1295;51.130;6.732;2022-12-16T09:11:43;-3.60;99.90
2571;DHT22;1295;51.130;6.732;2022-12-16T09:14:20;-3.70;99.90
2571;DHT22;1295;51.130;6.732;2022-12-16T09:16:57;-3.80;99.90
2571;DHT22;1295;51.130;6.732;2022-12-16T09:19:29;-3.70;99.90
2571;DHT22;1295;51.130;6.732;2022-12-16T09:22:01;-3.70;99.90
2571;DHT22;1295;51.130;6.732;2022-12-16T09:24:33;-3.60;99.90
2571;DHT22;1295;51.130;6.732;2022-12-16T09:27:04;-3.50;99.90
2571;DHT22;1295;51.130;6.732;2022-12-16T09:29:36;-3.50;99.90
2571;DHT22;1295;51.130;6.732;2022-12-16T09:32:08;-3.50;99.90
2571;DHT22;1295;51.130;6.732;2022-12-16T09:34:40;-3.40;99.90
2571;DHT22;1295;51.130;6.732;2022-12-16T09:37:11;-3.40;99.90
2571;DHT22;1295;51.130;6.732;2022-12-16T09:39:43;-3.30;99.90
2571;DHT22;1295;51.130;6.732;2022-12-16T09:42:50;-3.30;99.90
2571;DHT22;1295;51.130;6.732;2022-12-16T09:45:25;-3.30;99.90
2571;DHT22;1295;51.130;6.732;2022-12-16T09:47:58;-3.30;99.90
2571;DHT22;1295;51.130;6.732;2022-12-16T09:50:27;-3.40;99.90
2571;DHT22;1295;51.130;6.732;2022-12-16T09:52:59;-3.40;99.90
2571;DHT22;1295;51.130;6.732;2022-12-16T09:55:32;-3.30;99.90
2571;DHT22;1295;51.130;6.732;2022-12-16T09:58:03;-3.30;99.90
2571;DHT22;1295;51.130;6.732;2022-12-16T10:00:35;-3.30;99.90
2571;DHT22;1295;51.130;6.732;2022-12-16T10:03:26;-3.40;99.90
2571;DHT22;1295;51.130;6.732;2022-12-16T10:05:59;-3.20;99.90
2571;DHT22;1295;51.130;6.732;2022-12-16T10:08:34;-3.30;99.90
2571;DHT22;1295;51.130;6.732;2022-12-16T10:11:08;-3.30;99.90
2571;DHT22;1295;51.130;6.732;2022-12-16T10:13:41;-3.30;99.90
2571;DHT22;1295;51.130;6.732;2022-12-16T10:16:20;-3.30;99.90
2571;DHT22;1295;51.130;6.732;2022-12-16T10:19:04;-3.30;99.90
2571;DHT22;1295;51.130;6.732;2022-12-16T10:21:34;-3.40;99.90
2571;DHT22;1295;51.130;6.732;2022-12-16T10:25:13;-3.30;99.90
2571;DHT22;1295;51.130;6.732;2022-12-16T10:26:57;-3.30;99.90
2571;DHT22;1295;51.130;6.732;2022-12-16T10:29:27;-3.40;99.90
2571;DHT22;1295;51.130;6.732;2022-12-16T10:31:58;-3.40;99.90
2571;DHT22;1295;51.130;6.732;2022-12-16T10:34:31;-3.30;99.90
2571;DHT22;1295;51.130;6.732;2022-12-16T10:37:03;-3.30;99.90
2571;DHT22;1295;51.130;6.732;2022-12-16T10:39:36;-3.30;99.90
2571;DHT22;1295;51.130;6.732;2022-12-16T10:42:11;-3.20;99.90
2571;DHT22;1295;51.130;6.732;2022-12-16T10:44:46;-3.10;99.90
2571;DHT22;1295;51.130;6.732;2022-12-16T10:47:12;-2.40;99.90
2571;DHT22;1295;51.130;6.732;2022-12-16T10:49:44;-2.40;99.90
2571;DHT22;1295;51.130;6.732;2022-12-16T10:52:15;-2.20;99.90
2571;DHT22;1295;51.130;6.732;2022-12-16T10:54:54;-2.10;99.90
2571;DHT22;1295;51.130;6.732;2022-12-16T10:57:33;-1.90;99.90
2571;DHT22;1295;51.130;6.732;2022-12-16T11:00:16;-1.90;99.90
2571;DHT22;1295;51.130;6.732;2022-12-16T11:02:48;-1.80;99.90
2571;DHT22;1295;51.130;6.732;2022-12-16T11:05:29;-1.80;99.90
2571;DHT22;1295;51.130;6.732;2022-12-16T11:07:59;-1.80;99.90
2571;DHT22;1295;51.130;6.732;2022-12-16T11:10:36;-1.90;99.90
2571;DHT22;1295;51.130;6.732;2022-12-16T11:15:46;-1.90;99.90
2571;DHT22;1295;51.130;6.732;2022-12-16T11:18:19;-1.70;99.90
2571;DHT22;1295;51.130;6.732;2022-12-16T11:21:04;-2.10;99.90
2571;DHT22;1295;51.130;6.732;2022-12-16T11:23:35;-2.00;99.90
2571;DHT22;1295;51.130;6.732;2022-12-16T11:26:17;-1.90;99.90
2571;DHT22;1295;51.130;6.732;2022-12-16T11:29:04;-1.90;99.90
2571;DHT22;1295;51.130;6.732;2022-12-16T11:31:35;-1.90;99.90
2571;DHT22;1295;51.130;6.732;2022-12-16T11:34:07;-2.10;99.90
2571;DHT22;1295;51.130;6.732;2022-12-16T11:36:39;-2.20;99.90
2571;DHT22;1295;51.130;6.732;2022-12-16T11:39:13;-2.30;99.90
2571;DHT22;1295;51.130;6.732;2022-12-16T11:41:46;-2.20;99.90
2571;DHT22;1295;51.130;6.732;2022-12-16T11:44:34;-1.80;99.90
2571;DHT22;1295;51.130;6.732;2022-12-16T11:47:10;-1.60;99.90
2571;DHT22;1295;51.130;6.732;2022-12-16T11:49:38;-1.70;99.90
2571;DHT22;1295;51.130;6.732;2022-12-16T11:52:10;-1.70;99.90
2571;DHT22;1295;51.130;6.732;2022-12-16T11:55:32;-1.60;99.90
2571;DHT22;1295;51.130;6.732;2022-12-16T11:57:51;-1.70;99.90
2571;DHT22;1295;51.130;6.732;2022-12-16T12:00:19;-1.80;99.90
2571;DHT22;1295;51.130;6.732;2022-12-16T12:02:57;-1.80;99.90
2571;DHT22;1295;51.130;6.732;2022-12-16T12:05:27;-1.80;99.90
2571;DHT22;1295;51.130;6.732;2022-12-16T12:08:00;-2.30;99.90
2571;DHT22;1295;51.130;6.732;2022-12-16T12:10:56;-2.20;99.90
2571;DHT22;1295;51.130;6.732;2022-12-16T12:13:44;-2.10;99.90
2571;DHT22;1295;51.130;6.732;2022-12-16T12:16:17;-2.40;99.90
2571;DHT22;1295;51.130;6.732;2022-12-16T12:19:04;-2.10;99.90
2571;DHT22;1295;51.130;6.732;2022-12-16T12:21:38;-2.00;99.90
2571;DHT22;1295;51.130;6.732;2022-12-16T12:24:25;-1.90;99.90
2571;DHT22;1295;51.130;6.732;2022-12-16T12:26:56;-2.00;99.90
2571;DHT22;1295;51.130;6.732;2022-12-16T12:29:41;-2.00;99.90
2571;DHT22;1295;51.130;6.732;2022-12-16T12:32:30;-2.10;99.90
2571;DHT22;1295;51.130;6.732;2022-12-16T12:35:09;-2.50;99.90
2571;DHT22;1295;51.130;6.732;2022-12-16T12:37:42;-2.50;99.90
2571;DHT22;1295;51.130;6.732;2022-12-16T12:40:21;-2.50;99.90
2571;DHT22;1295;51.130;6.732;2022-12-16T12:42:52;-2.40;99.90
2571;DHT22;1295;51.130;6.732;2022-12-16T12:48:18;-2.50;99.90
2571;DHT22;1295;51.130;6.732;2022-12-16T12:50:55;-2.50;99.90
2571;DHT22;1295;51.130;6.732;2022-12-16T12:53:37;-2.70;99.90
2571;DHT22;1295;51.130;6.732;2022-12-16T12:56:15;-2.50;99.90
2571;DHT22;1295;51.130;6.732;2022-12-16T12:58:42;-2.50;99.90
2571;DHT22;1295;51.130;6.732;2022-12-16T13:01:14;-2.50;99.90
2571;DHT22;1295;51.130;6.732;2022-12-16T13:03:48;-2.50;99.90
2571;DHT22;1295;51.130;6.732;2022-12-16T13:06:19;-2.40;99.90
2571;DHT22;1295;51.130;6.732;2022-12-16T13:08:53;-2.20;99.90
2571;DHT22;1295;51.130;6.732;2022-12-16T13:11:24;-2.20;99.90
2571;DHT22;1295;51.130;6.732;2022-12-16T13:13:57;-2.60;99.90
2571;DHT22;1295;51.130;6.732;2022-12-16T13:21:55;-2.50;99.90
2571;DHT22;1295;51.130;6.732;2022-12-16T13:24:34;-2.20;99.90
2571;DHT22;1295;51.130;6.732;2022-12-16T13:27:09;-2.00;99.90
2571;DHT22;1295;51.130;6.732;2022-12-16T13:29:36;-2.00;99.90
2571;DHT22;1295;51.130;6.732;2022-12-16T13:32:32;-2.10;99.90
2571;DHT22;1295;51.130;6.732;2022-12-16T13:35:15;-2.00;99.90
2571;DHT22;1295;51.130;6.732;2022-12-16T13:37:52;-2.10;99.90
2571;DHT22;1295;51.130;6.732;2022-12-16T13:40:23;-2.20;99.90
2571;DHT22;1295;51.130;6.732;2022-12-16T13:42:55;-2.00;99.90
2571;DHT22;1295;51.130;6.732;2022-12-16T13:45:31;-2.20;99.90
2571;DHT22;1295;51.130;6.732;2022-12-16T13:48:03;-2.20;99.90
2571;DHT22;1295;51.130;6.732;2022-12-16T13:50:38;-2.40;99.90
2571;DHT22;1295;51.130;6.732;2022-12-16T13:53:08;-2.40;99.90
2571;DHT22;1295;51.130;6.732;2022-12-16T13:55:43;-2.40;99.90
2571;DHT22;1295;51.130;6.732;2022-12-16T13:58:18;-2.60;99.90
2571;DHT22;1295;51.130;6.732;2022-12-16T14:00:53;-2.50;99.90
2571;DHT22;1295;51.130;6.732;2022-12-16T14:03:20;-2.30;99.90
2571;DHT22;1295;51.130;6.732;2022-12-16T14:05:50;-2.40;99.90
2571;DHT22;1295;51.130;6.732;2022-12-16T14:08:22;-2.20;99.90
2571;DHT22;1295;51.130;6.732;2022-12-16T14:10:56;-2.20;99.90
2571;DHT22;1295;51.130;6.732;2022-12-16T14:16:14;-2.20;99.90
2571;DHT22;1295;51.130;6.732;2022-12-16T14:18:51;-2.50;99.90
2571;DHT22;1295;51.130;6.732;2022-12-16T14:21:19;-2.50;99.90
2571;DHT22;1295;51.130;6.732;2022-12-16T14:23:51;-2.40;99.90
2571;DHT22;1295;51.130;6.732;2022-12-16T14:26:22;-2.50;99.90
2571;DHT22;1295;51.130;6.732;2022-12-16T14:28:53;-2.40;99.90
2571;DHT22;1295;51.130;6.732;2022-12-16T14:31:29;-2.20;99.90
2571;DHT22;1295;51.130;6.732;2022-12-16T14:34:01;-2.20;99.90
2571;DHT22;1295;51.130;6.732;2022-12-16T14:36:36;-2.20;99.90
2571;DHT22;1295;51.130;6.732;2022-12-16T14:39:08;-2.30;99.90
2571;DHT22;1295;51.130;6.732;2022-12-16T14:41:36;-2.40;99.90
2571;DHT22;1295;51.130;6.732;2022-12-16T14:44:22;-2.30;99.90
2571;DHT22;1295;51.130;6.732;2022-12-16T14:46:55;-2.30;99.90
2571;DHT22;1295;51.130;6.732;2022-12-16T14:49:36;-2.20;99.90
2571;DHT22;1295;51.130;6.732;2022-12-16T14:52:24;-2.00;99.90
2571;DHT22;1295;51.130;6.732;2022-12-16T14:54:55;-2.00;99.90
2571;DHT22;1295;51.130;6.732;2022-12-16T14:57:28;-2.00;99.90
2571;DHT22;1295;51.130;6.732;2022-12-16T15:00:01;-2.00;99.90
2571;DHT22;1295;51.130;6.732;2022-12-16T15:02:33;-2.10;99.90
2571;DHT22;1295;51.130;6.732;2022-12-16T15:05:04;-2.00;99.90
2571;DHT22;1295;51.130;6.732;2022-12-16T15:07:36;-2.10;99.90
2571;DHT22;1295;51.130;6.732;2022-12-16T15:10:11;-2.10;99.90
2571;DHT22;1295;51.130;6.732;2022-12-16T15:12:41;-2.20;99.90
2571;DHT22;1295;51.130;6.732;2022-12-16T15:15:13;-2.10;99.90
2571;DHT22;1295;51.130;6.732;2022-12-16T15:17:48;-2.00;99.90
2571;DHT22;1295;51.130;6.732;2022-12-16T15:20:21;-2.00;99.90
2571;DHT22;1295;51.130;6.732;2022-12-16T15:22:53;-2.10;99.90
2571;DHT22;1295;51.130;6.732;2022-12-16T15:25:25;-2.10;99.90
2571;DHT22;1295;51.130;6.732;2022-12-16T15:27:56;-2.10;99.90
2571;DHT22;1295;51.130;6.732;2022-12-16T15:30:31;-2.10;99.90
2571;DHT22;1295;51.130;6.732;2022-12-16T15:33:04;-2.10;99.90
2571;DHT22;1295;51.130;6.732;2022-12-16T15:35:42;-2.20;99.90
2571;DHT22;1295;51.130;6.732;2022-12-16T15:38:26;-2.20;99.90
2571;DHT22;1295;51.130;6.732;2022-12-16T15:40:55;-2.10;99.90
2571;DHT22;1295;51.130;6.732;2022-12-16T15:43:28;-2.30;99.90
2571;DHT22;1295;51.130;6.732;2022-12-16T15:45:59;-2.30;99.90
2571;DHT22;1295;51.130;6.732;2022-12-16T15:48:31;-2.10;99.90
2571;DHT22;1295;51.130;6.732;2022-12-16T15:51:03;-2.00;99.90
2571;DHT22;1295;51.130;6.732;2022-12-16T15:53:35;-2.20;99.90
2571;DHT22;1295;51.130;6.732;2022-12-16T15:56:15;-2.50;99.90
2571;DHT22;1295;51.130;6.732;2022-12-16T15:58:39;-2.60;99.90
2571;DHT22;1295;51.130;6.732;2022-12-16T16:01:11;-2.20;99.90
2571;DHT22;1295;51.130;6.732;2022-12-16T16:03:48;-2.60;99.90
2571;DHT22;1295;51.130;6.732;2022-12-16T16:06:20;-2.50;99.90
2571;DHT22;1295;51.130;6.732;2022-12-16T16:08:51;-2.50;99.90
2571;DHT22;1295;51.130;6.732;2022-12-16T16:11:23;-2.60;99.90
2571;DHT22;1295;51.130;6.732;2022-12-16T16:13:55;-2.60;99.90
2571;DHT22;1295;51.130;6.732;2022-12-16T16:16:27;-2.50;99.90
2571;DHT22;1295;51.130;6.732;2022-12-16T16:18:59;-2.40;99.90
2571;DHT22;1295;51.130;6.732;2022-12-16T16:21:30;-2.50;99.90
2571;DHT22;1295;51.130;6.732;2022-12-16T16:24:03;-2.50;99.90
2571;DHT22;1295;51.130;6.732;2022-12-16T16:26:34;-2.10;99.90
2571;DHT22;1295;51.130;6.732;2022-12-16T16:29:08;-1.80;99.90
2571;DHT22;1295;51.130;6.732;2022-12-16T16:31:38;-2.00;99.90
2571;DHT22;1295;51.130;6.732;2022-12-16T16:34:10;-2.10;99.90
2571;DHT22;1295;51.130;6.732;2022-12-16T16:36:41;-2.30;99.90
2571;DHT22;1295;51.130;6.732;2022-12-16T16:39:13;-2.10;99.90
2571;DHT22;1295;51.130;6.732;2022-12-16T16:41:45;-1.80;99.90
2571;DHT22;1295;51.130;6.732;2022-12-16T16:44:17;-1.80;99.90
2571;DHT22;1295;51.130;6.732;2022-12-16T16:46:49;-1.60;99.90
2571;DHT22;1295;51.130;6.732;2022-12-16T16:49:24;-1.70;99.90
2571;DHT22;1295;51.130;6.732;2022-12-16T16:51:54;-2.00;99.90
2571;DHT22;1295;51.130;6.732;2022-12-16T16:54:27;-2.10;99.90
2571;DHT22;1295;51.130;6.732;2022-12-16T16:56:59;-2.10;99.90